sensor_id;sensor_type;location;lat;lon;timestamp;P1;durP1;ratioP1;P2;durP2;ratioP2
2011;SDS011;1009;51.436;6.972;2023-06-04T00:02:19;1.80;;;1.37;;
2011;SDS011;1009;51.436;6.972;2023-06-04T00:04:46;1.50;;;1.10;;
2011;SDS011;1009;51.436;6.972;2023-06-04T00:07:14;1.63;;;1.43;;
2011;SDS011;1009;51.436;6.972;2023-06-04T00:09:41;1.90;;;1.27;;
2011;SDS011;1009;51.436;6.972;2023-06-04T00:12:09;1.77;;;1.10;;
2011;SDS011;1009;51.436;6.972;2023-06-04T00:14:35;1.40;;;1.10;;
2011;SDS011;1009;51.436;6.972;2023-06-04T00:17:02;2.33;;;1.20;;
2011;SDS011;1009;51.436;6.972;2023-06-04T00:19:29;1.47;;;1.03;;
2011;SDS011;1009;51.436;6.972;2023-06-04T00:21:56;1.40;;;1.10;;
2011;SDS011;1009;51.436;6.972;2023-06-04T00:24:24;1.37;;;1.20;;
2011;SDS011;1009;51.436;6.972;2023-06-04T00:26:53;2.13;;;1.40;;
2011;SDS011;1009;51.436;6.972;2023-06-04T00:29:20;2.60;;;1.33;;
2011;SDS011;1009;51.436;6.972;2023-06-04T00:31:47;1.30;;;0.90;;
2011;SDS011;1009;51.436;6.972;2023-06-04T00:34:20;2.20;;;1.10;;
2011;SDS011;1009;51.436;6.972;2023-06-04T00:36:46;2.23;;;1.13;;
2011;SDS011;1009;51.436;6.972;2023-06-04T00:39:13;2.20;;;1.37;;
2011;SDS011;1009;51.436;6.972;2023-06-04T00:41:41;1.07;;;0.80;;
2011;SDS011;1009;51.436;6.972;2023-06-04T00:44:08;1.50;;;1.00;;
2011;SDS011;1009;51.436;6.972;2023-06-04T00:46:36;2.50;;;1.23;;
2011;SDS011;1009;51.436;6.972;2023-06-04T00:49:04;2.10;;;1.27;;
2011;SDS011;1009;51.436;6.972;2023-06-04T00:51:31;2.40;;;0.90;;
2011;SDS011;1009;51.436;6.972;2023-06-04T00:53:59;2.40;;;0.90;;
2011;SDS011;1009;51.436;6.972;2023-06-04T00:56:33;1.87;;;1.33;;
2011;SDS011;1009;51.436;6.972;2023-06-04T00:59:01;5.00;;;1.27;;
2011;SDS011;1009;51.436;6.972;2023-06-04T01:01:29;1.70;;;1.20;;
2011;SDS011;1009;51.436;6.972;2023-06-04T01:04:05;2.10;;;1.00;;
2011;SDS011;1009;51.436;6.972;2023-06-04T01:06:39;2.17;;;1.10;;
2011;SDS011;1009;51.436;6.972;2023-06-04T01:09:09;2.50;;;1.20;;
2011;SDS011;1009;51.436;6.972;2023-06-04T01:11:37;1.10;;;0.80;;
2011;SDS011;1009;51.436;6.972;2023-06-04T01:14:07;1.97;;;1.50;;
2011;SDS011;1009;51.436;6.972;2023-06-04T01:16:36;5.10;;;1.10;;
2011;SDS011;1009;51.436;6.972;2023-06-04T01:19:08;1.50;;;1.10;;
2011;SDS011;1009;51.436;6.972;2023-06-04T01:21:46;2.20;;;1.30;;
2011;SDS011;1009;51.436;6.972;2023-06-04T01:24:16;1.30;;;1.00;;
2011;SDS011;1009;51.436;6.972;2023-06-04T01:26:47;3.47;;;1.30;;
2011;SDS011;1009;51.436;6.972;2023-06-04T01:29:17;1.80;;;1.10;;
2011;SDS011;1009;51.436;6.972;2023-06-04T01:31:44;1.37;;;1.03;;
2011;SDS011;1009;51.436;6.972;2023-06-04T01:34:11;2.27;;;1.40;;
2011;SDS011;1009;51.436;6.972;2023-06-04T01:36:38;3.80;;;1.47;;
2011;SDS011;1009;51.436;6.972;2023-06-04T01:39:05;1.73;;;1.30;;
2011;SDS011;1009;51.436;6.972;2023-06-04T01:41:34;1.07;;;0.97;;
2011;SDS011;1009;51.436;6.972;2023-06-04T01:44:01;3.57;;;1.00;;
2011;SDS011;1009;51.436;6.972;2023-06-04T01:46:29;2.13;;;1.63;;
2011;SDS011;1009;51.436;6.972;2023-06-04T01:48:56;4.80;;;1.40;;
2011;SDS011;1009;51.436;6.972;2023-06-04T01:51:23;1.67;;;1.20;;
2011;SDS011;1009;51.436;6.972;2023-06-04T01:53:49;4.10;;;1.10;;
2011;SDS011;1009;51.436;6.972;2023-06-04T01:56:16;2.20;;;1.23;;
2011;SDS011;1009;51.436;6.972;2023-06-04T01:58:46;1.77;;;1.00;;
2011;SDS011;1009;51.436;6.972;2023-06-04T02:01:12;2.30;;;1.20;;
2011;SDS011;1009;51.436;6.972;2023-06-04T02:03:43;2.10;;;1.20;;
2011;SDS011;1009;51.436;6.972;2023-06-04T02:06:10;2.13;;;1.10;;
2011;SDS011;1009;51.436;6.972;2023-06-04T02:08:37;2.37;;;1.63;;
2011;SDS011;1009;51.436;6.972;2023-06-04T02:11:05;3.53;;;1.60;;
2011;SDS011;1009;51.436;6.972;2023-06-04T02:13:32;3.33;;;1.20;;
2011;SDS011;1009;51.436;6.972;2023-06-04T02:15:59;2.93;;;1.20;;
2011;SDS011;1009;51.436;6.972;2023-06-04T02:18:25;2.70;;;1.13;;
2011;SDS011;1009;51.436;6.972;2023-06-04T02:20:54;1.27;;;1.10;;
2011;SDS011;1009;51.436;6.972;2023-06-04T02:23:23;1.57;;;1.00;;
2011;SDS011;1009;51.436;6.972;2023-06-04T02:25:50;5.70;;;1.47;;
2011;SDS011;1009;51.436;6.972;2023-06-04T02:28:16;7.03;;;1.40;;
2011;SDS011;1009;51.436;6.972;2023-06-04T02:30:43;1.43;;;1.33;;
2011;SDS011;1009;51.436;6.972;2023-06-04T02:33:11;1.83;;;1.20;;
2011;SDS011;1009;51.436;6.972;2023-06-04T02:35:38;3.90;;;1.57;;
2011;SDS011;1009;51.436;6.972;2023-06-04T02:38:07;1.57;;;1.17;;
2011;SDS011;1009;51.436;6.972;2023-06-04T02:40:34;2.80;;;1.13;;
2011;SDS011;1009;51.436;6.972;2023-06-04T02:43:00;1.80;;;1.27;;
2011;SDS011;1009;51.436;6.972;2023-06-04T02:45:27;4.33;;;1.70;;
2011;SDS011;1009;51.436;6.972;2023-06-04T02:47:54;1.10;;;1.00;;
2011;SDS011;1009;51.436;6.972;2023-06-04T02:50:21;3.93;;;1.10;;
2011;SDS011;1009;51.436;6.972;2023-06-04T02:52:48;4.17;;;1.67;;
2011;SDS011;1009;51.436;6.972;2023-06-04T02:55:16;2.07;;;1.30;;
2011;SDS011;1009;51.436;6.972;2023-06-04T02:57:42;1.67;;;1.27;;
2011;SDS011;1009;51.436;6.972;2023-06-04T03:00:10;2.20;;;1.20;;
2011;SDS011;1009;51.436;6.972;2023-06-04T03:02:41;1.97;;;1.37;;
2011;SDS011;1009;51.436;6.972;2023-06-04T03:05:09;2.23;;;1.10;;
2011;SDS011;1009;51.436;6.972;2023-06-04T03:07:37;2.80;;;1.70;;
2011;SDS011;1009;51.436;6.972;2023-06-04T03:10:06;1.10;;;1.00;;
2011;SDS011;1009;51.436;6.972;2023-06-04T03:12:34;2.10;;;1.37;;
2011;SDS011;1009;51.436;6.972;2023-06-04T03:15:02;1.60;;;1.50;;
2011;SDS011;1009;51.436;6.972;2023-06-04T03:17:30;1.70;;;0.93;;
2011;SDS011;1009;51.436;6.972;2023-06-04T03:19:59;3.40;;;1.37;;
2011;SDS011;1009;51.436;6.972;2023-06-04T03:22:35;3.30;;;1.60;;
2011;SDS011;1009;51.436;6.972;2023-06-04T03:25:05;2.30;;;1.27;;
2011;SDS011;1009;51.436;6.972;2023-06-04T03:27:32;2.87;;;1.77;;
2011;SDS011;1009;51.436;6.972;2023-06-04T03:30:01;2.83;;;1.47;;
2011;SDS011;1009;51.436;6.972;2023-06-04T03:32:28;2.33;;;1.47;;
2011;SDS011;1009;51.436;6.972;2023-06-04T03:34:55;1.67;;;1.13;;
2011;SDS011;1009;51.436;6.972;2023-06-04T03:37:21;3.90;;;1.77;;
2011;SDS011;1009;51.436;6.972;2023-06-04T03:39:48;2.33;;;1.40;;
2011;SDS011;1009;51.436;6.972;2023-06-04T03:42:15;2.03;;;1.60;;
2011;SDS011;1009;51.436;6.972;2023-06-04T03:44:43;4.10;;;1.83;;
2011;SDS011;1009;51.436;6.972;2023-06-04T03:47:11;1.70;;;1.37;;
2011;SDS011;1009;51.436;6.972;2023-06-04T03:49:37;4.57;;;1.80;;
2011;SDS011;1009;51.436;6.972;2023-06-04T03:52:04;3.93;;;1.60;;
2011;SDS011;1009;51.436;6.972;2023-06-04T03:54:31;1.57;;;1.30;;
2011;SDS011;1009;51.436;6.972;2023-06-04T03:56:58;2.90;;;1.50;;
2011;SDS011;1009;51.436;6.972;2023-06-04T03:59:25;1.60;;;1.50;;
2011;SDS011;1009;51.436;6.972;2023-06-04T04:01:53;3.30;;;2.00;;
2011;SDS011;1009;51.436;6.972;2023-06-04T04:04:20;2.33;;;1.90;;
2011;SDS011;1009;51.436;6.972;2023-06-04T04:06:46;2.70;;;1.97;;
2011;SDS011;1009;51.436;6.972;2023-06-04T04:09:14;2.37;;;1.30;;
2011;SDS011;1009;51.436;6.972;2023-06-04T04:11:41;3.77;;;1.80;;
2011;SDS011;1009;51.436;6.972;2023-06-04T04:14:07;2.47;;;1.20;;
2011;SDS011;1009;51.436;6.972;2023-06-04T04:16:34;1.80;;;1.40;;
2011;SDS011;1009;51.436;6.972;2023-06-04T04:19:05;2.70;;;1.87;;
2011;SDS011;1009;51.436;6.972;2023-06-04T04:21:32;3.20;;;1.50;;
2011;SDS011;1009;51.436;6.972;2023-06-04T04:24:21;2.57;;;1.50;;
2011;SDS011;1009;51.436;6.972;2023-06-04T04:26:48;4.20;;;1.80;;
2011;SDS011;1009;51.436;6.972;2023-06-04T04:29:18;5.07;;;2.17;;
2011;SDS011;1009;51.436;6.972;2023-06-04T04:31:47;5.80;;;2.00;;
2011;SDS011;1009;51.436;6.972;2023-06-04T04:34:15;2.40;;;1.83;;
2011;SDS011;1009;51.436;6.972;2023-06-04T04:36:45;2.13;;;1.27;;
2011;SDS011;1009;51.436;6.972;2023-06-04T04:39:17;1.40;;;1.13;;
2011;SDS011;1009;51.436;6.972;2023-06-04T04:41:44;2.37;;;1.50;;
2011;SDS011;1009;51.436;6.972;2023-06-04T04:44:10;2.37;;;1.60;;
2011;SDS011;1009;51.436;6.972;2023-06-04T04:46:37;2.10;;;1.23;;
2011;SDS011;1009;51.436;6.972;2023-06-04T04:49:04;1.70;;;1.30;;
2011;SDS011;1009;51.436;6.972;2023-06-04T04:51:32;2.70;;;1.47;;
2011;SDS011;1009;51.436;6.972;2023-06-04T04:53:59;3.13;;;1.87;;
2011;SDS011;1009;51.436;6.972;2023-06-04T04:56:26;4.37;;;1.57;;
2011;SDS011;1009;51.436;6.972;2023-06-04T04:58:53;2.00;;;1.53;;
2011;SDS011;1009;51.436;6.972;2023-06-04T05:01:20;6.00;;;1.80;;
2011;SDS011;1009;51.436;6.972;2023-06-04T05:03:49;2.50;;;1.60;;
2011;SDS011;1009;51.436;6.972;2023-06-04T05:06:15;3.30;;;2.47;;
2011;SDS011;1009;51.436;6.972;2023-06-04T05:08:43;2.73;;;1.80;;
2011;SDS011;1009;51.436;6.972;2023-06-04T05:11:10;4.23;;;1.80;;
2011;SDS011;1009;51.436;6.972;2023-06-04T05:13:37;2.40;;;1.57;;
2011;SDS011;1009;51.436;6.972;2023-06-04T05:16:04;2.93;;;1.53;;
2011;SDS011;1009;51.436;6.972;2023-06-04T05:18:31;2.80;;;1.87;;
2011;SDS011;1009;51.436;6.972;2023-06-04T05:21:00;4.40;;;2.37;;
2011;SDS011;1009;51.436;6.972;2023-06-04T05:23:27;1.70;;;1.60;;
2011;SDS011;1009;51.436;6.972;2023-06-04T05:25:56;3.97;;;2.13;;
2011;SDS011;1009;51.436;6.972;2023-06-04T05:28:23;2.50;;;1.83;;
2011;SDS011;1009;51.436;6.972;2023-06-04T05:30:50;2.67;;;1.53;;
2011;SDS011;1009;51.436;6.972;2023-06-04T05:33:23;2.80;;;1.83;;
2011;SDS011;1009;51.436;6.972;2023-06-04T05:35:50;4.73;;;1.87;;
2011;SDS011;1009;51.436;6.972;2023-06-04T05:38:19;3.50;;;1.80;;
2011;SDS011;1009;51.436;6.972;2023-06-04T05:40:45;3.43;;;2.57;;
2011;SDS011;1009;51.436;6.972;2023-06-04T05:43:14;2.93;;;2.00;;
2011;SDS011;1009;51.436;6.972;2023-06-04T05:45:41;4.00;;;1.87;;
2011;SDS011;1009;51.436;6.972;2023-06-04T05:48:07;4.23;;;1.73;;
2011;SDS011;1009;51.436;6.972;2023-06-04T05:50:34;2.37;;;1.50;;
2011;SDS011;1009;51.436;6.972;2023-06-04T05:53:01;3.27;;;1.57;;
2011;SDS011;1009;51.436;6.972;2023-06-04T05:55:27;3.40;;;1.90;;
2011;SDS011;1009;51.436;6.972;2023-06-04T05:57:54;3.67;;;2.00;;
2011;SDS011;1009;51.436;6.972;2023-06-04T06:00:22;7.13;;;1.90;;
2011;SDS011;1009;51.436;6.972;2023-06-04T06:02:49;2.73;;;1.70;;
2011;SDS011;1009;51.436;6.972;2023-06-04T06:05:17;3.17;;;1.97;;
2011;SDS011;1009;51.436;6.972;2023-06-04T06:07:44;3.30;;;2.00;;
2011;SDS011;1009;51.436;6.972;2023-06-04T06:10:11;4.03;;;2.50;;
2011;SDS011;1009;51.436;6.972;2023-06-04T06:12:38;3.50;;;1.60;;
2011;SDS011;1009;51.436;6.972;2023-06-04T06:15:06;3.60;;;2.00;;
2011;SDS011;1009;51.436;6.972;2023-06-04T06:17:34;2.77;;;1.97;;
2011;SDS011;1009;51.436;6.972;2023-06-04T06:20:01;4.50;;;1.70;;
2011;SDS011;1009;51.436;6.972;2023-06-04T06:22:32;2.73;;;2.07;;
2011;SDS011;1009;51.436;6.972;2023-06-04T06:24:59;3.17;;;1.80;;
2011;SDS011;1009;51.436;6.972;2023-06-04T06:27:26;2.43;;;1.73;;
2011;SDS011;1009;51.436;6.972;2023-06-04T06:29:52;3.10;;;2.50;;
2011;SDS011;1009;51.436;6.972;2023-06-04T06:32:19;3.40;;;2.13;;
2011;SDS011;1009;51.436;6.972;2023-06-04T06:34:47;3.60;;;2.27;;
2011;SDS011;1009;51.436;6.972;2023-06-04T06:37:14;5.37;;;1.73;;
2011;SDS011;1009;51.436;6.972;2023-06-04T06:39:40;3.00;;;1.87;;
2011;SDS011;1009;51.436;6.972;2023-06-04T06:42:07;2.17;;;1.50;;
2011;SDS011;1009;51.436;6.972;2023-06-04T06:44:34;2.33;;;2.13;;
2011;SDS011;1009;51.436;6.972;2023-06-04T06:47:01;3.17;;;2.27;;
2011;SDS011;1009;51.436;6.972;2023-06-04T06:49:28;3.73;;;2.03;;
2011;SDS011;1009;51.436;6.972;2023-06-04T06:51:56;3.47;;;1.93;;
2011;SDS011;1009;51.436;6.972;2023-06-04T06:54:22;2.13;;;1.90;;
2011;SDS011;1009;51.436;6.972;2023-06-04T06:56:49;3.10;;;2.37;;
2011;SDS011;1009;51.436;6.972;2023-06-04T06:59:16;6.50;;;1.90;;
2011;SDS011;1009;51.436;6.972;2023-06-04T07:01:43;2.37;;;1.60;;
2011;SDS011;1009;51.436;6.972;2023-06-04T07:04:09;4.37;;;1.60;;
2011;SDS011;1009;51.436;6.972;2023-06-04T07:06:37;6.90;;;1.77;;
2011;SDS011;1009;51.436;6.972;2023-06-04T07:09:05;2.90;;;1.50;;
2011;SDS011;1009;51.436;6.972;2023-06-04T07:11:32;2.00;;;1.57;;
2011;SDS011;1009;51.436;6.972;2023-06-04T07:13:59;2.70;;;1.27;;
2011;SDS011;1009;51.436;6.972;2023-06-04T07:16:27;3.13;;;1.67;;
2011;SDS011;1009;51.436;6.972;2023-06-04T07:18:54;3.80;;;2.23;;
2011;SDS011;1009;51.436;6.972;2023-06-04T07:21:21;1.97;;;1.33;;
2011;SDS011;1009;51.436;6.972;2023-06-04T07:23:49;1.60;;;1.40;;
2011;SDS011;1009;51.436;6.972;2023-06-04T07:26:17;2.00;;;1.40;;
2011;SDS011;1009;51.436;6.972;2023-06-04T07:28:47;2.83;;;1.73;;
2011;SDS011;1009;51.436;6.972;2023-06-04T07:31:31;1.67;;;1.20;;
2011;SDS011;1009;51.436;6.972;2023-06-04T07:33:59;2.83;;;1.90;;
2011;SDS011;1009;51.436;6.972;2023-06-04T07:36:25;2.00;;;1.50;;
2011;SDS011;1009;51.436;6.972;2023-06-04T07:38:52;5.20;;;1.77;;
2011;SDS011;1009;51.436;6.972;2023-06-04T07:41:20;1.53;;;1.43;;
2011;SDS011;1009;51.436;6.972;2023-06-04T07:43:47;3.60;;;1.77;;
2011;SDS011;1009;51.436;6.972;2023-06-04T07:46:14;2.20;;;1.50;;
2011;SDS011;1009;51.436;6.972;2023-06-04T07:48:43;2.13;;;1.57;;
2011;SDS011;1009;51.436;6.972;2023-06-04T07:51:10;2.40;;;1.93;;
2011;SDS011;1009;51.436;6.972;2023-06-04T07:53:42;2.03;;;1.63;;
2011;SDS011;1009;51.436;6.972;2023-06-04T07:56:09;3.00;;;1.90;;
2011;SDS011;1009;51.436;6.972;2023-06-04T07:58:38;2.90;;;1.53;;
2011;SDS011;1009;51.436;6.972;2023-06-04T08:01:05;2.77;;;1.60;;
2011;SDS011;1009;51.436;6.972;2023-06-04T08:03:32;2.30;;;1.70;;
2011;SDS011;1009;51.436;6.972;2023-06-04T08:05:59;2.27;;;1.70;;
2011;SDS011;1009;51.436;6.972;2023-06-04T08:08:26;2.80;;;1.70;;
2011;SDS011;1009;51.436;6.972;2023-06-04T08:10:53;3.80;;;2.00;;
2011;SDS011;1009;51.436;6.972;2023-06-04T08:13:20;2.23;;;1.70;;
2011;SDS011;1009;51.436;6.972;2023-06-04T08:15:48;2.70;;;1.83;;
2011;SDS011;1009;51.436;6.972;2023-06-04T08:18:14;1.80;;;1.63;;
2011;SDS011;1009;51.436;6.972;2023-06-04T08:20:41;2.40;;;1.83;;
2011;SDS011;1009;51.436;6.972;2023-06-04T08:23:08;2.00;;;1.50;;
2011;SDS011;1009;51.436;6.972;2023-06-04T08:25:35;1.70;;;1.60;;
2011;SDS011;1009;51.436;6.972;2023-06-04T08:28:01;2.17;;;1.70;;
2011;SDS011;1009;51.436;6.972;2023-06-04T08:30:28;3.17;;;1.90;;
2011;SDS011;1009;51.436;6.972;2023-06-04T08:32:57;3.70;;;1.87;;
2011;SDS011;1009;51.436;6.972;2023-06-04T08:35:23;3.03;;;1.53;;
2011;SDS011;1009;51.436;6.972;2023-06-04T08:37:50;3.30;;;2.57;;
2011;SDS011;1009;51.436;6.972;2023-06-04T08:40:17;2.60;;;2.20;;
2011;SDS011;1009;51.436;6.972;2023-06-04T08:42:44;3.23;;;2.40;;
2011;SDS011;1009;51.436;6.972;2023-06-04T08:45:11;3.23;;;2.17;;
2011;SDS011;1009;51.436;6.972;2023-06-04T08:47:40;3.10;;;2.40;;
2011;SDS011;1009;51.436;6.972;2023-06-04T08:50:11;2.90;;;2.23;;
2011;SDS011;1009;51.436;6.972;2023-06-04T08:52:39;4.40;;;2.67;;
2011;SDS011;1009;51.436;6.972;2023-06-04T08:55:08;3.20;;;2.07;;
2011;SDS011;1009;51.436;6.972;2023-06-04T08:57:37;2.73;;;1.97;;
2011;SDS011;1009;51.436;6.972;2023-06-04T09:00:05;2.60;;;1.90;;
2011;SDS011;1009;51.436;6.972;2023-06-04T09:02:33;4.70;;;2.37;;
2011;SDS011;1009;51.436;6.972;2023-06-04T09:05:02;3.17;;;2.67;;
2011;SDS011;1009;51.436;6.972;2023-06-04T09:07:35;4.20;;;3.03;;
2011;SDS011;1009;51.436;6.972;2023-06-04T09:10:02;4.63;;;2.90;;
2011;SDS011;1009;51.436;6.972;2023-06-04T09:12:33;5.40;;;3.03;;
2011;SDS011;1009;51.436;6.972;2023-06-04T09:15:02;5.20;;;2.83;;
2011;SDS011;1009;51.436;6.972;2023-06-04T09:17:29;3.10;;;2.57;;
2011;SDS011;1009;51.436;6.972;2023-06-04T09:19:56;5.73;;;2.30;;
2011;SDS011;1009;51.436;6.972;2023-06-04T09:22:32;2.50;;;2.17;;
2011;SDS011;1009;51.436;6.972;2023-06-04T09:24:59;4.20;;;2.60;;
2011;SDS011;1009;51.436;6.972;2023-06-04T09:27:28;2.07;;;1.87;;
2011;SDS011;1009;51.436;6.972;2023-06-04T09:30:04;3.63;;;2.30;;
2011;SDS011;1009;51.436;6.972;2023-06-04T09:32:33;4.20;;;2.47;;
2011;SDS011;1009;51.436;6.972;2023-06-04T09:35:07;5.40;;;2.10;;
2011;SDS011;1009;51.436;6.972;2023-06-04T09:37:38;2.50;;;2.07;;
2011;SDS011;1009;51.436;6.972;2023-06-04T09:40:05;3.83;;;1.70;;
2011;SDS011;1009;51.436;6.972;2023-06-04T09:42:41;6.57;;;2.40;;
2011;SDS011;1009;51.436;6.972;2023-06-04T09:45:08;3.53;;;2.17;;
2011;SDS011;1009;51.436;6.972;2023-06-04T09:47:39;2.93;;;2.27;;
2011;SDS011;1009;51.436;6.972;2023-06-04T09:50:07;3.63;;;2.03;;
2011;SDS011;1009;51.436;6.972;2023-06-04T09:52:34;3.80;;;1.80;;
2011;SDS011;1009;51.436;6.972;2023-06-04T09:55:04;3.53;;;2.20;;
2011;SDS011;1009;51.436;6.972;2023-06-04T09:57:44;3.10;;;1.83;;
2011;SDS011;1009;51.436;6.972;2023-06-04T10:00:13;2.60;;;1.80;;
2011;SDS011;1009;51.436;6.972;2023-06-04T10:02:42;2.20;;;1.43;;
2011;SDS011;1009;51.436;6.972;2023-06-04T10:05:11;2.53;;;1.87;;
2011;SDS011;1009;51.436;6.972;2023-06-04T10:07:39;3.60;;;2.40;;
2011;SDS011;1009;51.436;6.972;2023-06-04T10:10:09;2.37;;;2.00;;
2011;SDS011;1009;51.436;6.972;2023-06-04T10:12:41;6.40;;;1.60;;
2011;SDS011;1009;51.436;6.972;2023-06-04T10:15:10;3.20;;;1.80;;
2011;SDS011;1009;51.436;6.972;2023-06-04T10:17:38;2.70;;;1.90;;
2011;SDS011;1009;51.436;6.972;2023-06-04T10:20:06;2.40;;;1.50;;
2011;SDS011;1009;51.436;6.972;2023-06-04T10:22:35;3.40;;;2.50;;
2011;SDS011;1009;51.436;6.972;2023-06-04T10:25:02;4.47;;;2.00;;
2011;SDS011;1009;51.436;6.972;2023-06-04T10:27:31;3.03;;;2.00;;
2011;SDS011;1009;51.436;6.972;2023-06-04T10:30:00;2.70;;;2.00;;
2011;SDS011;1009;51.436;6.972;2023-06-04T10:32:28;2.87;;;1.77;;
2011;SDS011;1009;51.436;6.972;2023-06-04T10:34:55;2.90;;;1.70;;
2011;SDS011;1009;51.436;6.972;2023-06-04T10:37:23;2.57;;;1.70;;
2011;SDS011;1009;51.436;6.972;2023-06-04T10:39:54;1.70;;;1.37;;
2011;SDS011;1009;51.436;6.972;2023-06-04T10:42:25;3.60;;;1.40;;
2011;SDS011;1009;51.436;6.972;2023-06-04T10:44:54;1.80;;;1.47;;
2011;SDS011;1009;51.436;6.972;2023-06-04T10:47:21;1.57;;;1.30;;
2011;SDS011;1009;51.436;6.972;2023-06-04T10:49:49;5.23;;;1.80;;
2011;SDS011;1009;51.436;6.972;2023-06-04T10:52:17;3.57;;;1.40;;
2011;SDS011;1009;51.436;6.972;2023-06-04T10:54:44;1.80;;;1.60;;
2011;SDS011;1009;51.436;6.972;2023-06-04T10:57:14;2.87;;;2.07;;
2011;SDS011;1009;51.436;6.972;2023-06-04T10:59:42;2.03;;;1.83;;
2011;SDS011;1009;51.436;6.972;2023-06-04T11:02:21;2.30;;;1.70;;
2011;SDS011;1009;51.436;6.972;2023-06-04T11:04:58;1.73;;;1.60;;
2011;SDS011;1009;51.436;6.972;2023-06-04T11:07:40;3.00;;;1.93;;
2011;SDS011;1009;51.436;6.972;2023-06-04T11:10:07;2.03;;;1.83;;
2011;SDS011;1009;51.436;6.972;2023-06-04T11:12:40;3.03;;;2.10;;
2011;SDS011;1009;51.436;6.972;2023-06-04T11:15:10;2.40;;;1.80;;
2011;SDS011;1009;51.436;6.972;2023-06-04T11:17:37;2.30;;;2.10;;
2011;SDS011;1009;51.436;6.972;2023-06-04T11:20:04;2.93;;;1.70;;
2011;SDS011;1009;51.436;6.972;2023-06-04T11:22:49;3.03;;;2.17;;
2011;SDS011;1009;51.436;6.972;2023-06-04T11:25:17;2.83;;;2.63;;
2011;SDS011;1009;51.436;6.972;2023-06-04T11:27:44;4.53;;;2.30;;
2011;SDS011;1009;51.436;6.972;2023-06-04T11:30:13;5.57;;;1.80;;
2011;SDS011;1009;51.436;6.972;2023-06-04T11:32:40;2.40;;;1.63;;
2011;SDS011;1009;51.436;6.972;2023-06-04T11:35:07;2.33;;;1.60;;
2011;SDS011;1009;51.436;6.972;2023-06-04T11:37:36;4.33;;;1.97;;
2011;SDS011;1009;51.436;6.972;2023-06-04T11:40:14;2.07;;;1.87;;
2011;SDS011;1009;51.436;6.972;2023-06-04T11:42:42;2.20;;;2.00;;
2011;SDS011;1009;51.436;6.972;2023-06-04T11:45:10;5.33;;;2.40;;
2011;SDS011;1009;51.436;6.972;2023-06-04T11:47:38;2.47;;;1.83;;
2011;SDS011;1009;51.436;6.972;2023-06-04T11:50:05;2.20;;;1.70;;
2011;SDS011;1009;51.436;6.972;2023-06-04T11:52:33;1.80;;;1.57;;
2011;SDS011;1009;51.436;6.972;2023-06-04T11:54:59;2.33;;;1.63;;
2011;SDS011;1009;51.436;6.972;2023-06-04T11:57:26;2.10;;;1.73;;
2011;SDS011;1009;51.436;6.972;2023-06-04T11:59:54;3.67;;;2.17;;
2011;SDS011;1009;51.436;6.972;2023-06-04T12:02:21;4.27;;;2.17;;
2011;SDS011;1009;51.436;6.972;2023-06-04T12:04:49;2.37;;;1.70;;
2011;SDS011;1009;51.436;6.972;2023-06-04T12:07:19;2.00;;;1.80;;
2011;SDS011;1009;51.436;6.972;2023-06-04T12:09:49;4.03;;;1.87;;
2011;SDS011;1009;51.436;6.972;2023-06-04T12:12:21;2.10;;;1.77;;
2011;SDS011;1009;51.436;6.972;2023-06-04T12:14:55;4.13;;;1.97;;
2011;SDS011;1009;51.436;6.972;2023-06-04T12:17:23;2.30;;;1.90;;
2011;SDS011;1009;51.436;6.972;2023-06-04T12:19:52;2.57;;;2.37;;
2011;SDS011;1009;51.436;6.972;2023-06-04T12:22:19;2.40;;;2.17;;
2011;SDS011;1009;51.436;6.972;2023-06-04T12:24:46;4.23;;;2.07;;
2011;SDS011;1009;51.436;6.972;2023-06-04T12:27:14;2.90;;;2.47;;
2011;SDS011;1009;51.436;6.972;2023-06-04T12:29:41;2.50;;;2.10;;
2011;SDS011;1009;51.436;6.972;2023-06-04T12:32:08;2.40;;;2.10;;
2011;SDS011;1009;51.436;6.972;2023-06-04T12:34:36;3.50;;;1.87;;
2011;SDS011;1009;51.436;6.972;2023-06-04T12:37:04;2.50;;;2.10;;
2011;SDS011;1009;51.436;6.972;2023-06-04T12:39:32;4.10;;;2.33;;
2011;SDS011;1009;51.436;6.972;2023-06-04T12:41:59;2.30;;;2.10;;
2011;SDS011;1009;51.436;6.972;2023-06-04T12:44:26;2.80;;;2.50;;
2011;SDS011;1009;51.436;6.972;2023-06-04T13:01:15;2.90;;;1.80;;
2011;SDS011;1009;51.436;6.972;2023-06-04T13:03:42;3.53;;;2.23;;
2011;SDS011;1009;51.436;6.972;2023-06-04T13:06:09;3.70;;;1.83;;
2011;SDS011;1009;51.436;6.972;2023-06-04T13:08:36;2.50;;;2.20;;
2011;SDS011;1009;51.436;6.972;2023-06-04T13:11:02;2.30;;;2.10;;
2011;SDS011;1009;51.436;6.972;2023-06-04T13:13:30;4.43;;;2.10;;
2011;SDS011;1009;51.436;6.972;2023-06-04T13:15:57;5.57;;;2.30;;
2011;SDS011;1009;51.436;6.972;2023-06-04T13:18:25;7.17;;;2.07;;
2011;SDS011;1009;51.436;6.972;2023-06-04T13:20:52;2.53;;;1.83;;
2011;SDS011;1009;51.436;6.972;2023-06-04T13:23:19;2.33;;;1.80;;
2011;SDS011;1009;51.436;6.972;2023-06-04T13:25:46;4.60;;;1.80;;
2011;SDS011;1009;51.436;6.972;2023-06-04T13:28:12;3.40;;;1.83;;
2011;SDS011;1009;51.436;6.972;2023-06-04T13:30:40;2.60;;;1.80;;
2011;SDS011;1009;51.436;6.972;2023-06-04T13:33:07;3.93;;;2.07;;
2011;SDS011;1009;51.436;6.972;2023-06-04T13:35:35;3.27;;;2.10;;
2011;SDS011;1009;51.436;6.972;2023-06-04T13:38:03;2.30;;;1.63;;
2011;SDS011;1009;51.436;6.972;2023-06-04T13:40:31;2.70;;;2.07;;
2011;SDS011;1009;51.436;6.972;2023-06-04T13:42:59;2.10;;;1.83;;
2011;SDS011;1009;51.436;6.972;2023-06-04T13:45:26;1.97;;;1.63;;
2011;SDS011;1009;51.436;6.972;2023-06-04T13:47:53;2.10;;;1.63;;
2011;SDS011;1009;51.436;6.972;2023-06-04T13:50:24;5.17;;;1.63;;
2011;SDS011;1009;51.436;6.972;2023-06-04T13:52:53;3.23;;;1.50;;
2011;SDS011;1009;51.436;6.972;2023-06-04T13:55:21;4.13;;;1.73;;
2011;SDS011;1009;51.436;6.972;2023-06-04T13:57:47;2.03;;;1.53;;
2011;SDS011;1009;51.436;6.972;2023-06-04T14:00:14;1.63;;;1.53;;
2011;SDS011;1009;51.436;6.972;2023-06-04T14:02:41;2.20;;;1.73;;
2011;SDS011;1009;51.436;6.972;2023-06-04T14:05:08;2.60;;;1.77;;
2011;SDS011;1009;51.436;6.972;2023-06-04T14:07:35;1.77;;;1.47;;
2011;SDS011;1009;51.436;6.972;2023-06-04T14:10:03;2.50;;;1.70;;
2011;SDS011;1009;51.436;6.972;2023-06-04T14:12:31;1.70;;;1.43;;
2011;SDS011;1009;51.436;6.972;2023-06-04T14:14:57;2.80;;;1.57;;
2011;SDS011;1009;51.436;6.972;2023-06-04T14:17:24;3.93;;;2.00;;
2011;SDS011;1009;51.436;6.972;2023-06-04T14:19:51;2.13;;;1.60;;
2011;SDS011;1009;51.436;6.972;2023-06-04T14:22:17;2.10;;;1.60;;
2011;SDS011;1009;51.436;6.972;2023-06-04T14:24:44;3.83;;;1.80;;
2011;SDS011;1009;51.436;6.972;2023-06-04T14:27:12;3.30;;;2.17;;
2011;SDS011;1009;51.436;6.972;2023-06-04T14:29:40;4.57;;;1.40;;
2011;SDS011;1009;51.436;6.972;2023-06-04T14:32:06;1.40;;;1.20;;
2011;SDS011;1009;51.436;6.972;2023-06-04T14:34:33;2.63;;;1.33;;
2011;SDS011;1009;51.436;6.972;2023-06-04T14:37:00;2.47;;;2.10;;
2011;SDS011;1009;51.436;6.972;2023-06-04T14:39:27;4.37;;;2.10;;
2011;SDS011;1009;51.436;6.972;2023-06-04T14:41:53;2.70;;;1.40;;
2011;SDS011;1009;51.436;6.972;2023-06-04T14:44:21;2.17;;;1.70;;
2011;SDS011;1009;51.436;6.972;2023-06-04T14:46:49;5.03;;;1.80;;
2011;SDS011;1009;51.436;6.972;2023-06-04T14:49:16;2.13;;;1.50;;
2011;SDS011;1009;51.436;6.972;2023-06-04T14:51:43;2.00;;;1.50;;
2011;SDS011;1009;51.436;6.972;2023-06-04T14:54:10;2.40;;;1.70;;
2011;SDS011;1009;51.436;6.972;2023-06-04T14:56:37;2.10;;;1.40;;
2011;SDS011;1009;51.436;6.972;2023-06-04T14:59:04;2.33;;;1.63;;
2011;SDS011;1009;51.436;6.972;2023-06-04T15:01:35;5.77;;;2.00;;
2011;SDS011;1009;51.436;6.972;2023-06-04T15:04:02;2.23;;;1.53;;
2011;SDS011;1009;51.436;6.972;2023-06-04T15:06:28;2.70;;;2.10;;
2011;SDS011;1009;51.436;6.972;2023-06-04T15:08:55;4.23;;;1.57;;
2011;SDS011;1009;51.436;6.972;2023-06-04T15:11:22;3.60;;;2.53;;
2011;SDS011;1009;51.436;6.972;2023-06-04T15:13:48;1.83;;;1.40;;
2011;SDS011;1009;51.436;6.972;2023-06-04T15:16:15;2.60;;;1.60;;
2011;SDS011;1009;51.436;6.972;2023-06-04T15:18:43;2.10;;;1.57;;
2011;SDS011;1009;51.436;6.972;2023-06-04T15:21:10;2.30;;;2.10;;
2011;SDS011;1009;51.436;6.972;2023-06-04T15:23:37;2.67;;;1.77;;
2011;SDS011;1009;51.436;6.972;2023-06-04T15:26:04;3.20;;;1.70;;
2011;SDS011;1009;51.436;6.972;2023-06-04T15:28:31;2.07;;;1.53;;
2011;SDS011;1009;51.436;6.972;2023-06-04T15:30:57;2.27;;;2.00;;
2011;SDS011;1009;51.436;6.972;2023-06-04T15:33:24;2.20;;;1.80;;
2011;SDS011;1009;51.436;6.972;2023-06-04T15:35:52;2.20;;;1.97;;